메인 페이지
METAR-TAF:

METAR-TAF

공항 :

Ozark, 앨라배마, 미국

위도: 31-17N, 경도: 085-43W, 고도: 91m

현재 날씨관측

예보는 24분 전, 18:10시(UTC)에 발표되었습니다.
동남동8kt
온도 18°C
습도 83%
기압 1017 hPa
시정: 16.1km
고도 700ft 상공 흐림

METAR: KOZR 201810Z AUTO 12008KT 10SM OVC007 18/15 A3003 RMK AO2 SLP171

시각: 12:34 (18:34 UTC)

예보

예보는 2 시간 34분 전, 16:00시(UTC)에 발표되었습니다.
예보 대상 시간: 20일 16시부터 21일 22시까지 (UTC)
동남동12kt
시정 10km 이상
고도 400ft 상공 흐림
전환 중
20일 17시부터 20일 18시까지 (UTC)
10kt, 순간 최대 풍속 15kt
시정 10km 이상
고도 700ft 상공 구름 많음
고도 1000ft 상공 흐림
일시적
20일 18시부터 20일 21시까지 (UTC)
고도 500ft 상공 구름 많음
전환 중
20일 20시부터 20일 21시까지 (UTC)
10kt, 순간 최대 풍속 15kt
시정: 8000m
고도 800ft 상공 구름 보통
고도 2100ft 상공 흐림
약한소나기
전환 중
21일 02시부터 21일 03시까지 (UTC)
9kt
시정: 8000m
고도 600ft 상공 흐림
약한소나기
전환 중
21일 08시부터 21일 09시까지 (UTC)
6kt
시정: 3200m
고도 500ft 상공 흐림
박무

TAF: KOZR 201600Z 2016/2122 11012KT 9999 OVC004 510106 QNH3002INS BECMG 2017/2018 18010G15KT 9999 BKN007 OVC010 510165 QNH2994INS TEMPO 2018/2021 BKN005 BECMG 2020/2021 19010G15KT 8000 -SHRA SCT008 OVC021 510232 QNH2994INS BECMG 2102/2103 19009KT 8000 -SHRA OVC006 510165 QNH2998INS BECMG 2108/2109 18006KT 3200 BR OVC005 QNH2995INS TX25/2021Z TN09/2016Z

4,000개 이상의 공항 관측 자료 및 예보 (METAR 및 TAF 보고).

지도상에서 검색 가능한 기상관측소가 노란 점과 빨간 점으로 표시되어 있습니다.

기상관측소 명을 보려면 표시 위로 마우스를 이동하세요.

날씨 관측과 예보를 보려면 클릭하세요.

지도 변경 : 확대하려면 엑스 표시가 있는 녹색 버튼, 축소하려면 빼기 표시가 있는 녹색 버튼, 다음 페이지의 지도를 보려면 녹색 화살표를 클릭하세요.


METAR-TAF: